LFPG/CDG METAR and TAF weather

Enter ICAO airport designator
Station Type Date Time Source
LFPG METAR 2021/05/16 00:00 UTC NOAA

LFPG 160000Z 26012KT 6000 -SHRA SCT012 BKN027 11/08 Q1005 TEMPO 3000 SHRA BKN020TCU


Station Type Date Time Source
LFPG Decoded METAR 2021/05/16 00:00 UTC NOAA

Paris-Aeroport Charles De Gaulle, France (LFPG) 49-01N 002-32E 109M
May 15, 2021 - 08:00 PM EDT / 2021.05.16 0000 UTC
Wind: from the W (260 degrees) at 14 MPH (12 KT):0
Visibility: 3 mile(s):0
Sky conditions: mostly cloudy
Weather: light rain showers; Towering cumulus clouds observed
Temperature: 51 F (11 C)
Dew Point: 46 F (8 C)
Relative Humidity: 81%
Pressure (altimeter): 29.68 in. Hg (1005 hPa)
ob: LFPG 160000Z 26012KT 6000 -SHRA SCT012 BKN027 11/08 Q1005 TEMPO 3000 SHRA BKN020TCU
cycle: 0

Station Type Date Time Source
LFPG TAF 2021/05/15 18:21 UTC NOAA

TAF LFPG 151700Z 1518/1624 22012KT 9999 SCT035TCU FEW040CB TX16/1613Z TN09/1603Z
TEMPO 1518/1524 3500 SHRA BKN035TCU SCT040CB
BECMG 1600/1602 FEW013 SCT030
TEMPO 1605/1609 3000 SHRA BKN009 BKN025TCU
BECMG 1613/1614 SCT035TCU FEW040CB
TEMPO 1614/1620 25015G25KT 3000 SHRA BKN035TCU SCT040CB PROB40
TEMPO 1615/1619 23020G40KT 2000 TSRAGS BKN030CB

Example: see airport list